Time;durP1;ratioP1;P1;durP2;ratioP2;P2;SDS_P1;SDS_P2;PMS_P1;PMS_P2;Temp;Humidity;BMP_temperature;BMP_pressure;BME280_temperature;BME280_humidity;BME280_pressure;Samples;Min_cycle;Max_cycle;Signal;HPM_P1;HPM_P2
2021/04/19 00:00:00;;;;;;;7.20;5.40;;;14.50;48.40;;;;;;1496261;39;20031;-52
2021/04/19 00:01:21;;;;;;;7.20;5.68;;;14.50;48.40;;;;;;1494652;39;20363;-52
2021/04/19 00:02:42;;;;;;;6.93;5.68;;;14.50;48.40;;;;;;1497559;39;20043;-49
2021/04/19 00:04:03;;;;;;;8.43;5.72;;;14.50;48.40;;;;;;1497303;39;20019;-55
2021/04/19 00:05:25;;;;;;;6.95;5.57;;;14.40;48.30;;;;;;1496556;39;20025;-52
2021/04/19 00:06:45;;;;;;;8.18;5.57;;;14.40;48.40;;;;;;1497280;39;20368;-55
2021/04/19 00:08:06;;;;;;;6.65;5.30;;;14.40;48.40;;;;;;1497482;39;20897;-54
2021/04/19 00:09:27;;;;;;;7.90;5.50;;;14.40;48.50;;;;;;1496404;39;20446;-55
2021/04/19 00:10:48;;;;;;;6.75;5.32;;;14.40;48.50;;;;;;1489775;39;20008;-53
2021/04/19 00:12:10;;;;;;;7.70;5.30;;;14.40;48.50;;;;;;1493489;39;20371;-53
2021/04/19 00:13:31;;;;;;;6.72;5.47;;;14.30;48.40;;;;;;1499006;39;20462;-55
2021/04/19 00:14:51;;;;;;;7.15;5.78;;;14.30;48.40;;;;;;1499072;39;20034;-56
2021/04/19 00:16:12;;;;;;;7.70;5.63;;;14.30;48.50;;;;;;1496582;39;20023;-54
2021/04/19 00:17:33;;;;;;;7.05;5.55;;;14.30;48.50;;;;;;1495366;39;20540;-52
2021/04/19 00:18:55;;;;;;;7.65;5.60;;;14.30;48.50;;;;;;1493551;39;20034;-51
2021/04/19 00:20:16;;;;;;;8.50;5.72;;;14.30;48.50;;;;;;1497144;39;20107;-53
2021/04/19 00:21:37;;;;;;;8.70;5.63;;;14.30;48.50;;;;;;1495840;39;20042;-53
2021/04/19 00:22:58;;;;;;;6.75;4.90;;;14.30;48.50;;;;;;1493868;39;20023;-51
2021/04/19 00:24:20;;;;;;;7.25;5.43;;;14.30;48.50;;;;;;1497471;39;20363;-51
2021/04/19 00:25:40;;;;;;;7.47;5.32;;;14.30;48.50;;;;;;1497100;39;20038;-52
2021/04/19 00:27:01;;;;;;;7.90;5.20;;;14.30;48.50;;;;;;1494596;39;20051;-57
2021/04/19 00:28:22;;;;;;;8.05;5.22;;;14.20;48.50;;;;;;1497085;39;20053;-55
2021/04/19 00:29:43;;;;;;;7.80;5.57;;;14.20;48.50;;;;;;1494150;39;20156;-52
2021/04/19 00:31:04;;;;;;;10.88;5.38;;;14.20;48.50;;;;;;1497863;39;20011;-54
2021/04/19 00:32:25;;;;;;;8.68;5.68;;;14.20;48.50;;;;;;1498087;39;20367;-51
2021/04/19 00:33:46;;;;;;;7.30;5.50;;;14.20;48.40;;;;;;1494402;39;20034;-52
2021/04/19 00:35:08;;;;;;;6.85;4.93;;;14.20;48.40;;;;;;1495888;39;20015;-52
2021/04/19 00:36:30;;;;;;;6.40;5.03;;;14.20;48.40;;;;;;1493642;39;20043;-50
2021/04/19 00:37:51;;;;;;;8.85;4.78;;;14.20;48.40;;;;;;1495279;39;20036;-53
2021/04/19 00:39:12;;;;;;;7.00;5.20;;;14.20;48.40;;;;;;1498258;39;20249;-53
2021/04/19 00:40:34;;;;;;;7.75;5.28;;;14.20;48.50;;;;;;1498081;39;20478;-53
2021/04/19 00:41:55;;;;;;;5.95;4.93;;;14.10;48.40;;;;;;1493253;39;20024;-53
2021/04/19 00:43:16;;;;;;;5.50;4.90;;;14.20;48.40;;;;;;1498274;39;20023;-54
2021/04/19 00:44:37;;;;;;;7.43;4.53;;;14.20;48.40;;;;;;1494753;39;20016;-54
2021/04/19 00:46:02;;;;;;;7.15;5.35;;;14.10;48.40;;;;;;1494832;39;20332;-55
2021/04/19 00:47:23;;;;;;;7.35;4.93;;;14.10;48.30;;;;;;1494255;39;20034;-50
2021/04/19 00:48:44;;;;;;;9.40;5.50;;;14.10;48.30;;;;;;1494207;39;20028;-50
2021/04/19 00:50:08;;;;;;;6.60;4.43;;;14.10;48.30;;;;;;1496761;39;20031;-52
2021/04/19 00:51:29;;;;;;;10.52;5.55;;;14.10;48.40;;;;;;1498672;39;20035;-56
2021/04/19 00:52:51;;;;;;;6.03;5.28;;;14.10;48.30;;;;;;1497321;39;20075;-54
2021/04/19 00:54:13;;;;;;;5.07;4.57;;;14.10;48.30;;;;;;1493110;39;20027;-53
2021/04/19 00:55:34;;;;;;;6.53;5.07;;;14.10;48.30;;;;;;1493731;39;20278;-55
2021/04/19 00:56:55;;;;;;;5.88;5.28;;;14.10;48.20;;;;;;1495583;39;20310;-56
2021/04/19 00:58:17;;;;;;;6.10;4.80;;;14.10;48.20;;;;;;1498723;39;20027;-56
2021/04/19 00:59:39;;;;;;;6.13;5.05;;;14.10;48.30;;;;;;1495259;39;20116;-54
2021/04/19 01:01:01;;;;;;;6.63;5.00;;;14.10;48.20;;;;;;1498587;39;20055;-55
2021/04/19 01:02:22;;;;;;;7.97;5.55;;;14.10;48.30;;;;;;1498014;39;20031;-56
2021/04/19 01:03:43;;;;;;;7.68;5.22;;;14.10;48.40;;;;;;1494340;39;20410;-53
2021/04/19 01:05:17;;;;;;;5.57;4.38;;;14.10;48.30;;;;;;1497584;39;20019;-54
2021/04/19 01:06:38;;;;;;;6.85;4.72;;;14.10;48.30;;;;;;1495970;39;20030;-55
2021/04/19 01:08:00;;;;;;;6.53;4.30;;;14.00;48.20;;;;;;1492098;39;20035;-53
2021/04/19 01:09:21;;;;;;;10.73;5.47;;;14.10;48.30;;;;;;1492457;39;20268;-54
2021/04/19 01:10:42;;;;;;;8.18;4.90;;;14.00;48.80;;;;;;1492953;39;20038;-54
2021/04/19 01:12:03;;;;;;;7.43;4.88;;;14.00;48.30;;;;;;1496937;39;20027;-54
2021/04/19 01:13:24;;;;;;;9.65;4.93;;;14.00;48.30;;;;;;1497663;39;20063;-53
2021/04/19 01:14:45;;;;;;;7.00;5.20;;;14.00;48.30;;;;;;1498414;39;20035;-54
2021/04/19 01:16:06;;;;;;;5.25;4.68;;;14.00;48.30;;;;;;1499723;39;20036;-54
2021/04/19 01:17:27;;;;;;;5.40;4.82;;;14.00;48.30;;;;;;1495605;39;20059;-53
2021/04/19 01:18:48;;;;;;;9.65;5.03;;;14.00;48.30;;;;;;1495717;39;20047;-54
2021/04/19 01:20:11;;;;;;;6.88;4.57;;;14.00;48.30;;;;;;1495983;39;20026;-54
2021/04/19 01:21:32;;;;;;;6.60;5.05;;;14.00;48.40;;;;;;1494892;39;20042;-51
2021/04/19 01:22:54;;;;;;;8.68;5.20;;;14.00;48.30;;;;;;1494811;39;20072;-51
2021/04/19 01:24:15;;;;;;;7.65;5.03;;;14.00;48.30;;;;;;1495952;39;20035;-51
2021/04/19 01:25:36;;;;;;;6.05;4.45;;;14.00;48.30;;;;;;1497607;39;20031;-54
2021/04/19 01:26:57;;;;;;;5.97;5.13;;;14.00;48.30;;;;;;1497289;39;20037;-54
2021/04/19 01:28:19;;;;;;;7.32;4.50;;;13.90;48.30;;;;;;1496822;39;20308;-54
2021/04/19 01:29:40;;;;;;;7.30;5.05;;;13.90;48.30;;;;;;1495987;39;20074;-54
2021/04/19 01:31:01;;;;;;;5.88;4.60;;;13.90;48.20;;;;;;1496433;39;20027;-54
2021/04/19 01:32:22;;;;;;;6.85;5.15;;;13.90;48.30;;;;;;1489820;39;20391;-56
2021/04/19 01:33:43;;;;;;;5.85;4.72;;;13.90;48.30;;;;;;1493948;39;20027;-55
2021/04/19 01:35:04;;;;;;;7.68;4.93;;;13.90;48.30;;;;;;1496533;39;21104;-53
2021/04/19 01:36:25;;;;;;;8.13;4.93;;;13.90;48.40;;;;;;1499534;39;20119;-51
2021/04/19 01:37:46;;;;;;;6.78;4.88;;;13.90;48.40;;;;;;1500343;39;20051;-53
2021/04/19 01:39:07;;;;;;;7.55;4.93;;;13.90;48.50;;;;;;1494546;39;20035;-51
2021/04/19 01:40:28;;;;;;;7.35;4.95;;;13.90;48.50;;;;;;1495119;39;20035;-54
2021/04/19 01:41:49;;;;;;;7.35;4.75;;;13.90;48.50;;;;;;1495116;39;20345;-52
2021/04/19 01:43:10;;;;;;;5.45;4.78;;;13.90;48.50;;;;;;1498266;39;20026;-52
2021/04/19 01:44:33;;;;;;;6.32;4.82;;;13.90;48.50;;;;;;1497578;39;20026;-50
2021/04/19 01:45:54;;;;;;;6.45;4.95;;;13.90;48.60;;;;;;1494070;39;20030;-54
2021/04/19 01:47:16;;;;;;;7.63;4.82;;;13.90;48.50;;;;;;1495142;39;20032;-54
2021/04/19 01:48:38;;;;;;;7.18;5.00;;;13.90;48.50;;;;;;1496679;39;20096;-55
2021/04/19 01:49:59;;;;;;;8.10;4.97;;;13.90;48.50;;;;;;1498157;39;20235;-52
2021/04/19 01:51:20;;;;;;;5.35;4.65;;;13.90;48.50;;;;;;1499767;39;20039;-55
2021/04/19 01:52:41;;;;;;;8.32;4.88;;;13.80;48.50;;;;;;1496620;39;20061;-55
2021/04/19 01:54:02;;;;;;;7.13;4.80;;;13.90;48.50;;;;;;1496301;39;20031;-52
2021/04/19 01:55:27;;;;;;;5.40;4.88;;;13.80;48.50;;;;;;1495872;39;20042;-51
2021/04/19 01:56:48;;;;;;;5.93;4.85;;;13.80;48.50;;;;;;1497150;39;20368;-52
2021/04/19 01:58:15;;;;;;;7.55;5.18;;;13.80;48.40;;;;;;1498253;39;20366;-54
2021/04/19 01:59:38;;;;;;;6.35;4.55;;;13.80;48.50;;;;;;1491806;39;20040;-54
2021/04/19 02:01:00;;;;;;;5.95;4.70;;;13.80;48.40;;;;;;1494926;39;20067;-53
2021/04/19 02:02:41;;;;;;;6.18;5.10;;;13.80;48.40;;;;;;1496468;39;20279;-53
2021/04/19 02:04:15;;;;;;;6.40;4.82;;;13.80;48.60;;;;;;1498333;39;20310;-52
2021/04/19 02:05:58;;;;;;;7.15;5.15;;;13.80;48.60;;;;;;1495735;39;20120;-51
2021/04/19 02:07:47;;;;;;;6.32;4.70;;;13.80;48.50;;;;;;1498019;39;20363;-55
2021/04/19 02:09:23;;;;;;;8.05;4.43;;;13.80;48.50;;;;;;1494764;39;20043;-53
2021/04/19 02:10:50;;;;;;;7.38;4.50;;;13.70;48.30;;;;;;1494606;39;20019;-54
2021/04/19 02:12:17;;;;;;;6.15;5.10;;;13.80;48.30;;;;;;1497715;39;20033;-52
2021/04/19 02:13:50;;;;;;;6.20;4.57;;;13.70;48.30;;;;;;1494743;39;20672;-53
2021/04/19 02:15:24;;;;;;;5.93;4.82;;;13.70;48.40;;;;;;1497508;39;20019;-54
2021/04/19 02:17:16;;;;;;;6.78;4.43;;;13.70;48.40;;;;;;1492840;39;20048;-56
2021/04/19 02:19:05;;;;;;;5.90;4.65;;;13.70;48.50;;;;;;1494478;39;20111;-54
2021/04/19 02:20:43;;;;;;;6.13;4.95;;;13.70;48.40;;;;;;1492670;39;20028;-54
2021/04/19 02:22:07;;;;;;;7.38;4.95;;;13.70;48.40;;;;;;1497318;39;20038;-55
2021/04/19 02:23:35;;;;;;;5.57;4.93;;;13.70;48.40;;;;;;1493744;39;20028;-53
2021/04/19 02:25:05;;;;;;;7.45;4.30;;;13.60;48.30;;;;;;1497704;39;20075;-54
2021/04/19 02:26:30;;;;;;;5.22;4.60;;;13.60;48.50;;;;;;1499038;39;20027;-55
2021/04/19 02:27:57;;;;;;;7.45;4.65;;;13.60;48.40;;;;;;1499102;39;20039;-55
2021/04/19 02:29:31;;;;;;;5.78;4.75;;;13.60;48.50;;;;;;1498978;39;20063;-54
2021/04/19 02:30:58;;;;;;;5.03;4.40;;;13.60;48.60;;;;;;1495686;39;20293;-55
2021/04/19 02:32:24;;;;;;;5.20;4.40;;;13.60;48.60;;;;;;1495468;39;20051;-51
2021/04/19 02:33:47;;;;;;;6.88;4.82;;;13.60;48.60;;;;;;1496873;39;20115;-55
2021/04/19 02:35:10;;;;;;;5.70;4.63;;;13.60;48.50;;;;;;1497681;39;20031;-55
2021/04/19 02:36:31;;;;;;;5.32;4.38;;;13.50;48.60;;;;;;1497730;39;20268;-55
2021/04/19 02:37:54;;;;;;;5.43;4.93;;;13.50;48.60;;;;;;1494661;39;20027;-56
2021/04/19 02:39:17;;;;;;;8.43;4.93;;;13.50;48.70;;;;;;1494803;39;20020;-49
2021/04/19 02:40:39;;;;;;;9.23;4.88;;;13.50;48.70;;;;;;1495553;39;20058;-52
2021/04/19 02:42:01;;;;;;;8.15;5.30;;;13.50;48.70;;;;;;1497276;39;20023;-52
2021/04/19 02:43:24;;;;;;;7.85;4.90;;;13.50;48.70;;;;;;1496350;39;20035;-55
2021/04/19 02:44:47;;;;;;;6.40;4.55;;;13.50;48.80;;;;;;1497607;39;20032;-55
2021/04/19 02:46:09;;;;;;;7.18;4.78;;;13.50;48.90;;;;;;1497942;39;20031;-53
2021/04/19 02:47:30;;;;;;;7.03;5.35;;;13.50;48.90;;;;;;1496280;39;20037;-55
2021/04/19 02:48:51;;;;;;;8.35;5.75;;;13.50;49.00;;;;;;1494715;39;20046;-54
2021/04/19 02:50:18;;;;;;;6.72;5.43;;;13.50;49.10;;;;;;1497473;39;20107;-54
2021/04/19 02:51:41;;;;;;;8.40;5.88;;;13.50;49.30;;;;;;1497441;39;20050;-51
2021/04/19 02:53:03;;;;;;;7.38;5.50;;;13.50;49.20;;;;;;1496285;39;20016;-54
2021/04/19 02:54:24;;;;;;;7.97;5.82;;;13.50;49.30;;;;;;1498134;39;20074;-53
2021/04/19 02:55:46;;;;;;;8.40;5.80;;;13.50;49.40;;;;;;1495220;39;20031;-53
2021/04/19 02:57:21;;;;;;;7.30;5.85;;;13.50;49.50;;;;;;1496966;39;20074;-51
2021/04/19 02:58:47;;;;;;;6.88;5.95;;;13.50;49.70;;;;;;1492709;39;20039;-55
2021/04/19 03:00:09;;;;;;;7.28;5.93;;;13.50;49.60;;;;;;1492922;39;20057;-53
2021/04/19 03:01:32;;;;;;;8.55;6.20;;;13.50;49.50;;;;;;1496777;39;20046;-54
2021/04/19 03:02:54;;;;;;;9.60;5.78;;;13.50;49.60;;;;;;1494663;39;20143;-53
2021/04/19 03:04:18;;;;;;;8.57;6.10;;;13.50;49.70;;;;;;1496423;39;20039;-54
2021/04/19 03:05:42;;;;;;;10.10;7.03;;;13.40;49.70;;;;;;1498164;39;20061;-53
2021/04/19 03:07:06;;;;;;;7.72;6.68;;;13.50;49.90;;;;;;1495670;39;20031;-55
2021/04/19 03:08:30;;;;;;;9.25;6.90;;;13.50;50.00;;;;;;1498497;39;20177;-55
2021/04/19 03:10:00;;;;;;;9.07;6.30;;;13.50;50.00;;;;;;1497198;39;20035;-54
2021/04/19 03:11:26;;;;;;;9.48;6.32;;;13.50;50.10;;;;;;1498379;39;20019;-54
2021/04/19 03:12:51;;;;;;;8.60;6.53;;;13.50;50.00;;;;;;1496077;39;20043;-52
2021/04/19 03:14:14;;;;;;;10.50;6.60;;;13.50;50.00;;;;;;1499549;39;20027;-54
2021/04/19 03:15:38;;;;;;;7.57;6.78;;;13.50;50.00;;;;;;1498064;39;20807;-53
2021/04/19 03:17:08;;;;;;;11.35;6.63;;;13.40;50.60;;;;;;1493088;39;20023;-51
2021/04/19 03:18:32;;;;;;;10.38;6.93;;;13.40;50.30;;;;;;1499592;39;20588;-53
2021/04/19 03:20:13;;;;;;;10.32;7.40;;;13.40;50.20;;;;;;1494604;39;20027;-51
2021/04/19 03:21:39;;;;;;;7.53;6.65;;;13.40;50.50;;;;;;1493669;39;20016;-51
2021/04/19 03:23:00;;;;;;;9.13;6.18;;;13.40;50.30;;;;;;1495146;39;20100;-53
2021/04/19 03:24:22;;;;;;;8.18;6.55;;;13.40;50.20;;;;;;1497244;39;20023;-52
2021/04/19 03:25:45;;;;;;;9.52;7.00;;;13.40;50.30;;;;;;1494890;39;20062;-55
2021/04/19 03:27:07;;;;;;;12.73;7.30;;;13.40;50.50;;;;;;1497127;39;20396;-53
2021/04/19 03:28:29;;;;;;;12.13;7.65;;;13.40;50.40;;;;;;1492908;39;20158;-54
2021/04/19 03:29:50;;;;;;;8.38;6.80;;;13.40;50.50;;;;;;1494787;39;20034;-54
2021/04/19 03:31:22;;;;;;;12.68;7.47;;;13.40;50.50;;;;;;1497927;39;20027;-53
2021/04/19 03:32:49;;;;;;;8.68;6.55;;;13.40;50.60;;;;;;1494515;39;20050;-55
2021/04/19 03:34:20;;;;;;;7.47;6.38;;;13.40;50.60;;;;;;1495080;39;20035;-54
2021/04/19 03:35:42;;;;;;;10.43;6.93;;;13.40;50.70;;;;;;1496560;39;20394;-54
2021/04/19 03:37:08;;;;;;;7.95;6.65;;;13.40;50.40;;;;;;1496749;39;20019;-52
2021/04/19 03:38:32;;;;;;;8.95;6.57;;;13.30;50.50;;;;;;1498840;39;20042;-52
2021/04/19 03:40:11;;;;;;;9.30;7.10;;;13.30;50.40;;;;;;1496586;39;20027;-51
2021/04/19 03:41:38;;;;;;;8.23;6.55;;;13.30;50.60;;;;;;1494831;39;20343;-52
2021/04/19 03:43:05;;;;;;;8.82;6.60;;;13.30;50.50;;;;;;1496170;39;20023;-54
2021/04/19 03:44:30;;;;;;;8.23;6.68;;;13.30;50.50;;;;;;1497896;39;20123;-54
2021/04/19 03:45:55;;;;;;;10.82;7.05;;;13.20;50.50;;;;;;1490457;39;20563;-54
2021/04/19 03:47:18;;;;;;;8.43;6.70;;;13.30;50.60;;;;;;1496505;39;20019;-55
2021/04/19 03:48:42;;;;;;;9.93;6.88;;;13.20;50.60;;;;;;1497664;39;20508;-51
2021/04/19 03:50:05;;;;;;;8.75;6.70;;;13.20;50.70;;;;;;1496476;39;20027;-52
2021/04/19 03:51:26;;;;;;;8.57;6.90;;;13.20;50.60;;;;;;1495145;39;20027;-56
2021/04/19 03:52:50;;;;;;;8.30;6.55;;;13.20;50.70;;;;;;1492706;39;20028;-52
2021/04/19 03:54:12;;;;;;;10.27;6.68;;;13.10;50.80;;;;;;1495992;39;20037;-51
2021/04/19 03:55:35;;;;;;;8.52;6.32;;;13.10;50.80;;;;;;1492444;39;20401;-54
2021/04/19 03:57:01;;;;;;;9.68;7.03;;;13.10;50.90;;;;;;1496524;39;20034;-52
2021/04/19 03:58:25;;;;;;;10.27;7.45;;;13.10;51.00;;;;;;1495546;39;20030;-51
2021/04/19 03:59:50;;;;;;;10.02;7.00;;;13.10;51.00;;;;;;1495007;39;20031;-53
2021/04/19 04:01:13;;;;;;;10.15;7.38;;;13.10;51.10;;;;;;1497428;39;20023;-53
2021/04/19 04:02:37;;;;;;;8.55;6.80;;;13.10;51.00;;;;;;1493747;39;20070;-52
2021/04/19 04:03:58;;;;;;;9.55;6.85;;;13.10;51.10;;;;;;1496080;39;20110;-53
2021/04/19 04:05:21;;;;;;;10.45;7.30;;;13.00;51.00;;;;;;1496938;39;20263;-54
2021/04/19 04:06:43;;;;;;;10.95;6.85;;;13.00;51.10;;;;;;1498064;39;20076;-54
2021/04/19 04:08:06;;;;;;;15.13;7.75;;;13.00;51.10;;;;;;1495321;39;20034;-52
2021/04/19 04:09:29;;;;;;;8.25;6.90;;;13.00;51.20;;;;;;1489325;39;20023;-50
2021/04/19 04:10:50;;;;;;;9.70;7.63;;;12.90;51.20;;;;;;1495668;39;20026;-53
2021/04/19 04:12:12;;;;;;;11.07;7.90;;;12.90;51.10;;;;;;1496472;39;20108;-54
2021/04/19 04:13:36;;;;;;;9.43;7.20;;;12.90;51.20;;;;;;1493759;39;20039;-54
2021/04/19 04:14:58;;;;;;;13.23;7.78;;;12.90;51.40;;;;;;1497343;39;20035;-51
2021/04/19 04:16:19;;;;;;;8.60;6.90;;;12.90;51.40;;;;;;1496167;39;20034;-56
2021/04/19 04:17:40;;;;;;;8.32;7.25;;;12.90;51.40;;;;;;1495937;39;20035;-51
2021/04/19 04:19:01;;;;;;;10.05;7.43;;;12.90;51.50;;;;;;1496025;39;20076;-56
2021/04/19 04:20:22;;;;;;;8.60;6.97;;;12.90;51.50;;;;;;1494562;39;20027;-53
2021/04/19 04:21:43;;;;;;;8.10;7.30;;;12.90;51.70;;;;;;1494967;39;20074;-54
2021/04/19 04:23:04;;;;;;;9.60;7.28;;;12.90;51.70;;;;;;1497255;39;20260;-53
2021/04/19 04:24:26;;;;;;;9.88;7.10;;;12.80;51.70;;;;;;1498681;39;20041;-55
2021/04/19 04:25:47;;;;;;;9.88;7.40;;;12.80;51.80;;;;;;1495045;39;20045;-53
2021/04/19 04:27:09;;;;;;;8.13;6.82;;;12.90;51.80;;;;;;1498593;39;20039;-54
2021/04/19 04:28:31;;;;;;;8.05;6.97;;;12.80;51.80;;;;;;1496266;39;20034;-54
2021/04/19 04:29:52;;;;;;;9.73;7.40;;;12.80;51.80;;;;;;1494713;39;20116;-54
2021/04/19 04:31:13;;;;;;;12.43;7.88;;;12.90;51.80;;;;;;1497256;39;20044;-55
2021/04/19 04:32:34;;;;;;;8.73;7.05;;;12.80;51.80;;;;;;1495680;39;20082;-53
2021/04/19 04:33:55;;;;;;;9.60;7.13;;;12.80;51.80;;;;;;1496765;39;20026;-54
2021/04/19 04:35:16;;;;;;;11.15;7.70;;;12.80;51.90;;;;;;1495497;39;20059;-55
2021/04/19 04:36:37;;;;;;;9.80;7.60;;;12.80;51.90;;;;;;1497606;39;20046;-54
2021/04/19 04:37:58;;;;;;;7.85;6.43;;;12.80;51.90;;;;;;1496767;39;20027;-52
2021/04/19 04:39:19;;;;;;;8.93;7.40;;;12.90;52.00;;;;;;1495527;39;20042;-54
2021/04/19 04:40:40;;;;;;;10.77;7.05;;;12.80;51.90;;;;;;1495464;39;20032;-54
2021/04/19 04:42:04;;;;;;;8.77;7.38;;;12.80;51.90;;;;;;1496679;39;20026;-54
2021/04/19 04:43:27;;;;;;;11.73;7.65;;;12.80;52.10;;;;;;1494309;39;20027;-54
2021/04/19 04:44:49;;;;;;;8.00;6.88;;;12.80;52.10;;;;;;1494907;39;20456;-53
2021/04/19 04:46:32;;;;;;;10.63;7.60;;;12.90;52.00;;;;;;1496770;39;20042;-55
2021/04/19 04:47:59;;;;;;;9.07;7.18;;;12.80;52.20;;;;;;1497540;39;20055;-51
2021/04/19 04:49:26;;;;;;;9.32;7.03;;;12.80;52.50;;;;;;1497786;39;20373;-54
2021/04/19 04:51:16;;;;;;;9.23;6.85;;;12.80;52.10;;;;;;1494459;39;20071;-56
2021/04/19 04:52:53;;;;;;;9.60;7.05;;;12.80;52.30;;;;;;1493090;39;20131;-53
2021/04/19 04:54:20;;;;;;;9.93;7.43;;;12.90;52.10;;;;;;1495897;39;20042;-54
2021/04/19 04:55:43;;;;;;;9.02;7.10;;;12.90;52.60;;;;;;1494750;39;20024;-54
2021/04/19 04:57:06;;;;;;;9.05;6.97;;;12.80;52.00;;;;;;1493222;39;20108;-54
2021/04/19 04:58:28;;;;;;;8.25;6.95;;;12.80;52.00;;;;;;1495744;39;20030;-52
2021/04/19 04:59:51;;;;;;;9.52;7.47;;;12.80;52.10;;;;;;1495897;39;20073;-54
2021/04/19 05:01:12;;;;;;;10.68;6.90;;;12.80;52.20;;;;;;1494839;39;20043;-55
2021/04/19 05:02:35;;;;;;;10.90;6.75;;;12.90;52.30;;;;;;1492753;39;20039;-55
2021/04/19 05:03:57;;;;;;;11.05;6.97;;;12.80;52.30;;;;;;1493337;39;20031;-51
2021/04/19 05:05:18;;;;;;;8.63;6.97;;;12.80;52.50;;;;;;1496385;39;20115;-54
2021/04/19 05:06:39;;;;;;;11.05;7.28;;;12.80;52.40;;;;;;1491528;39;20421;-54
2021/04/19 05:08:01;;;;;;;9.10;7.15;;;12.80;52.50;;;;;;1497310;39;20026;-55
2021/04/19 05:09:22;;;;;;;9.50;6.85;;;12.80;52.50;;;;;;1496130;39;20031;-54
2021/04/19 05:10:44;;;;;;;12.63;7.60;;;12.80;52.50;;;;;;1497382;39;20043;-52
2021/04/19 05:12:05;;;;;;;9.50;7.07;;;12.80;52.50;;;;;;1496495;39;20053;-54
2021/04/19 05:13:26;;;;;;;10.98;6.82;;;12.80;52.60;;;;;;1493564;39;20080;-52
2021/04/19 05:15:02;;;;;;;10.10;7.18;;;12.80;52.70;;;;;;1495793;39;20035;-53
2021/04/19 05:16:28;;;;;;;9.63;7.30;;;12.80;53.20;;;;;;1498632;39;20034;-52
2021/04/19 05:17:49;;;;;;;12.05;7.50;;;12.80;52.80;;;;;;1494696;39;20034;-54
2021/04/19 05:19:10;;;;;;;10.13;7.63;;;12.80;52.70;;;;;;1498668;39;20041;-53
2021/04/19 05:20:31;;;;;;;10.18;6.97;;;12.80;52.80;;;;;;1498636;39;20035;-54
2021/04/19 05:21:51;;;;;;;10.40;7.35;;;12.80;52.90;;;;;;1496092;39;20364;-53
2021/04/19 05:23:13;;;;;;;10.50;7.55;;;12.80;53.10;;;;;;1497786;39;20030;-54
2021/04/19 05:24:34;;;;;;;10.88;7.53;;;12.80;53.20;;;;;;1497297;39;20295;-54
2021/04/19 05:25:56;;;;;;;9.43;7.40;;;12.70;53.10;;;;;;1497937;39;20034;-53
2021/04/19 05:27:17;;;;;;;13.00;7.72;;;12.70;53.20;;;;;;1496438;39;20062;-51
2021/04/19 05:28:42;;;;;;;8.63;7.07;;;12.70;53.20;;;;;;1492615;39;20026;-52
2021/04/19 05:30:03;;;;;;;10.55;6.97;;;12.70;53.40;;;;;;1495694;39;20074;-54
2021/04/19 05:31:24;;;;;;;9.30;7.13;;;12.70;53.20;;;;;;1496609;39;20570;-51
2021/04/19 05:32:45;;;;;;;10.68;7.90;;;12.70;53.20;;;;;;1494851;39;20043;-53
2021/04/19 05:34:06;;;;;;;9.63;7.38;;;12.70;53.20;;;;;;1496086;39;20116;-55
2021/04/19 05:35:28;;;;;;;11.50;8.00;;;12.70;53.20;;;;;;1496239;39;20292;-54
2021/04/19 05:36:50;;;;;;;11.27;7.47;;;12.70;53.30;;;;;;1494972;39;20039;-54
2021/04/19 05:38:12;;;;;;;12.27;7.70;;;12.70;53.50;;;;;;1497549;39;20383;-54
2021/04/19 05:39:34;;;;;;;10.70;7.55;;;12.70;53.50;;;;;;1497305;39;20026;-53
2021/04/19 05:40:55;;;;;;;9.63;7.22;;;12.70;53.60;;;;;;1496271;39;20062;-55
2021/04/19 05:42:17;;;;;;;11.00;7.47;;;12.70;53.50;;;;;;1498539;39;20023;-54
2021/04/19 05:43:42;;;;;;;10.30;7.78;;;12.70;53.60;;;;;;1495403;39;20132;-56
2021/04/19 05:45:06;;;;;;;11.80;7.95;;;12.70;53.80;;;;;;1498412;39;20034;-55
2021/04/19 05:46:27;;;;;;;8.93;7.55;;;12.70;53.60;;;;;;1498566;39;20023;-52
2021/04/19 05:47:49;;;;;;;9.77;7.72;;;12.70;54.20;;;;;;1500125;39;20489;-54
2021/04/19 05:49:10;;;;;;;11.13;8.13;;;12.70;53.70;;;;;;1496249;39;20034;-52
2021/04/19 05:50:31;;;;;;;10.50;7.90;;;12.70;53.70;;;;;;1497413;39;20024;-52
2021/04/19 05:51:56;;;;;;;9.82;7.63;;;12.70;53.80;;;;;;1496583;39;20031;-52
2021/04/19 05:53:17;;;;;;;8.93;7.55;;;12.70;54.00;;;;;;1498211;39;20030;-52
2021/04/19 05:54:41;;;;;;;9.93;7.35;;;12.70;53.80;;;;;;1497116;39;20031;-51
2021/04/19 05:56:06;;;;;;;11.48;7.97;;;12.70;53.90;;;;;;1497617;39;20023;-54
2021/04/19 05:57:50;;;;;;;12.18;7.65;;;12.70;54.00;;;;;;1497775;39;20057;-55
2021/04/19 05:59:27;;;;;;;12.30;7.88;;;12.70;54.10;;;;;;1494712;39;20473;-54
2021/04/19 06:00:55;;;;;;;9.07;7.10;;;12.70;53.80;;;;;;1491989;39;20026;-54
2021/04/19 06:02:26;;;;;;;10.63;8.50;;;12.70;53.80;;;;;;1497704;39;20168;-54
2021/04/19 06:04:28;;;;;;;10.70;8.15;;;12.70;54.00;;;;;;1492436;39;20039;-51
2021/04/19 06:06:11;;;;;;;10.05;8.40;;;12.70;54.20;;;;;;1495633;39;20034;-56
2021/04/19 06:07:51;;;;;;;9.48;6.95;;;12.70;53.90;;;;;;1498596;39;20046;-53
2021/04/19 06:09:15;;;;;;;;;;;12.70;54.10;;;;;;1497533;39;20046;-52
2021/04/19 06:10:47;;;;;;;11.38;6.97;;;12.70;54.10;;;;;;1498257;39;20067;-51
2021/04/19 06:12:10;;;;;;;12.07;8.27;;;12.70;53.70;;;;;;1496805;39;20090;-54
2021/04/19 06:13:33;;;;;;;8.57;7.47;;;12.70;53.70;;;;;;1497821;39;20047;-54
2021/04/19 06:14:57;;;;;;;10.27;8.52;;;12.70;53.70;;;;;;1496980;39;20320;-55
2021/04/19 06:16:19;;;;;;;12.10;8.57;;;12.70;53.90;;;;;;1499266;39;20363;-55
2021/04/19 06:17:52;;;;;;;13.32;8.98;;;12.70;53.90;;;;;;1497493;39;20047;-54
2021/04/19 06:19:16;;;;;;;13.05;8.50;;;12.70;54.30;;;;;;1493148;39;20361;-54
2021/04/19 06:20:38;;;;;;;11.70;8.63;;;12.60;54.00;;;;;;1498782;39;20035;-55
2021/04/19 06:21:59;;;;;;;8.60;7.70;;;12.60;54.10;;;;;;1498426;39;20039;-55
2021/04/19 06:23:21;;;;;;;13.80;8.60;;;12.60;54.10;;;;;;1498100;39;20027;-54
2021/04/19 06:24:47;;;;;;;11.98;8.80;;;12.60;54.10;;;;;;1497897;39;20038;-54
2021/04/19 06:26:09;;;;;;;14.68;8.77;;;12.60;54.20;;;;;;1498280;39;20026;-55
2021/04/19 06:27:30;;;;;;;10.98;8.43;;;12.60;54.60;;;;;;1498769;39;20158;-53
2021/04/19 06:28:51;;;;;;;11.13;8.25;;;12.60;54.10;;;;;;1494369;39;20034;-52
2021/04/19 06:30:19;;;;;;;11.93;8.55;;;12.60;54.20;;;;;;1494821;39;20353;-53
2021/04/19 06:31:48;;;;;;;13.18;8.55;;;12.60;54.50;;;;;;1497559;39;20256;-51
2021/04/19 06:33:13;;;;;;;11.35;9.00;;;12.60;54.40;;;;;;1498053;39;20083;-52
2021/04/19 06:34:34;;;;;;;11.73;8.73;;;12.60;54.20;;;;;;1496511;39;20027;-55
2021/04/19 06:35:55;;;;;;;12.00;9.10;;;12.50;54.20;;;;;;1495762;39;20440;-55
2021/04/19 06:37:18;;;;;;;12.70;8.90;;;12.60;54.40;;;;;;1495746;39;20035;-53
2021/04/19 06:38:39;;;;;;;12.10;8.75;;;12.50;54.40;;;;;;1496906;39;20046;-53
2021/04/19 06:39:59;;;;;;;11.10;9.13;;;12.50;54.50;;;;;;1499664;39;20359;-53
2021/04/19 06:41:21;;;;;;;10.32;8.63;;;12.50;54.60;;;;;;1496250;39;20023;-54
2021/04/19 06:42:42;;;;;;;12.38;8.98;;;12.50;54.60;;;;;;1495684;39;20155;-54
2021/04/19 06:44:04;;;;;;;10.93;8.40;;;12.50;54.60;;;;;;1495422;39;20027;-53
2021/04/19 06:45:25;;;;;;;11.55;8.40;;;12.50;54.80;;;;;;1498138;39;20034;-55
2021/04/19 06:46:46;;;;;;;13.60;9.13;;;12.50;54.80;;;;;;1492131;39;20031;-52
2021/04/19 06:48:09;;;;;;;11.63;8.68;;;12.50;54.90;;;;;;1494262;39;20046;-53
2021/04/19 06:49:30;;;;;;;9.55;8.40;;;12.50;55.10;;;;;;1494188;39;20038;-55
2021/04/19 06:50:52;;;;;;;11.07;8.30;;;12.50;55.00;;;;;;1493417;39;20039;-56
2021/04/19 06:52:13;;;;;;;11.45;8.35;;;12.40;54.90;;;;;;1498184;39;20031;-53
2021/04/19 06:53:34;;;;;;;11.77;8.50;;;12.40;54.90;;;;;;1493999;39;20054;-56
2021/04/19 06:54:54;;;;;;;13.05;8.75;;;12.40;55.00;;;;;;1492240;39;20031;-55
2021/04/19 06:56:19;;;;;;;12.30;8.85;;;12.40;55.00;;;;;;1493877;39;20019;-52
2021/04/19 06:57:43;;;;;;;13.98;9.23;;;12.40;55.20;;;;;;1494437;39;20097;-53
2021/04/19 06:59:05;;;;;;;11.60;8.48;;;12.40;55.20;;;;;;1489573;39;20039;-52
2021/04/19 07:00:29;;;;;;;14.70;9.30;;;12.40;55.20;;;;;;1490918;39;20049;-55
2021/04/19 07:01:52;;;;;;;13.85;8.88;;;12.40;55.60;;;;;;1497602;39;20027;-54
2021/04/19 07:03:18;;;;;;;11.80;9.02;;;12.40;55.80;;;;;;1497151;39;20039;-54
2021/04/19 07:04:39;;;;;;;11.20;8.40;;;12.40;55.80;;;;;;1496275;39;20086;-55
2021/04/19 07:06:01;;;;;;;11.82;9.55;;;12.40;55.80;;;;;;1495582;39;20026;-55
2021/04/19 07:07:34;;;;;;;12.52;9.02;;;12.40;55.90;;;;;;1496830;39;20059;-56
2021/04/19 07:09:02;;;;;;;11.52;9.02;;;12.30;56.30;;;;;;1496039;39;20031;-56
2021/04/19 07:10:23;;;;;;;11.32;8.88;;;12.40;56.20;;;;;;1494685;39;20057;-56
2021/04/19 07:11:46;;;;;;;15.35;9.52;;;12.40;56.00;;;;;;1495392;39;20499;-54
2021/04/19 07:13:09;;;;;;;11.50;9.18;;;12.30;56.20;;;;;;1498150;39;20025;-55
2021/04/19 07:14:33;;;;;;;13.88;9.73;;;12.30;56.20;;;;;;1496552;39;20127;-54